createdAt,value
2022-08-28T08:58:07.201Z,15.98
2022-08-28T09:01:17.938Z,16.08
2022-08-28T09:04:34.336Z,16.13
2022-08-28T09:07:42.690Z,16.16
2022-08-28T09:10:52.942Z,16.28
2022-08-28T09:14:08.356Z,16.38
2022-08-28T09:17:14.187Z,16.26
2022-08-28T09:20:20.362Z,16.30
2022-08-28T09:23:33.088Z,16.25
2022-08-28T09:26:37.358Z,16.29
2022-08-28T09:29:43.626Z,16.25
2022-08-28T09:33:00.844Z,16.36
2022-08-28T09:36:35.239Z,16.26
2022-08-28T09:39:38.230Z,16.20
2022-08-28T09:42:58.411Z,16.13
2022-08-28T09:46:05.032Z,16.19
2022-08-28T09:49:13.460Z,16.28
2022-08-28T09:52:25.121Z,16.29
2022-08-28T09:55:47.475Z,16.47
2022-08-28T09:58:54.588Z,16.30
2022-08-28T10:02:24.313Z,16.45
2022-08-28T10:05:39.168Z,16.59
2022-08-28T10:09:03.169Z,16.61
2022-08-28T10:12:17.075Z,16.52
2022-08-28T10:15:27.198Z,16.53
2022-08-28T10:18:39.211Z,16.55
2022-08-28T10:21:50.684Z,16.65
2022-08-28T10:25:04.985Z,16.60
2022-08-28T10:28:29.107Z,16.67
2022-08-28T10:31:44.265Z,16.73
2022-08-28T10:35:02.007Z,16.84
2022-08-28T10:38:11.613Z,16.76
2022-08-28T10:41:21.771Z,16.87
2022-08-28T10:44:29.339Z,16.91
2022-08-28T10:47:35.412Z,16.97
2022-08-28T10:50:45.167Z,16.96
2022-08-28T10:53:55.292Z,16.93
2022-08-28T10:57:06.917Z,16.99
2022-08-28T11:00:13.661Z,17.05
2022-08-28T11:03:34.021Z,17.05
2022-08-28T11:06:44.598Z,17.11
2022-08-28T11:09:51.859Z,17.07
2022-08-28T11:12:55.243Z,17.03
2022-08-28T11:15:58.325Z,17.13
2022-08-28T11:19:44.554Z,17.02
2022-08-28T11:22:54.004Z,17.14
2022-08-28T11:26:01.989Z,17.09
2022-08-28T11:29:04.980Z,17.07
2022-08-28T11:32:36.449Z,17.22
2022-08-28T11:35:50.916Z,17.28
2022-08-28T11:39:21.410Z,17.31
2022-08-28T11:42:39.071Z,17.37
2022-08-28T11:46:12.143Z,17.39
2022-08-28T11:49:41.820Z,17.40
2022-08-28T11:53:09.162Z,17.39
2022-08-28T11:56:49.659Z,17.37
2022-08-28T12:00:04.915Z,17.40
2022-08-28T12:03:13.602Z,17.48
2022-08-28T12:06:16.618Z,17.56
2022-08-28T12:09:40.130Z,17.66
2022-08-28T12:12:55.920Z,17.78
2022-08-28T12:16:06.860Z,17.85
2022-08-28T12:19:11.300Z,18.02
2022-08-28T12:22:17.257Z,18.01
2022-08-28T12:25:29.187Z,18.09
2022-08-28T12:28:40.363Z,18.15
2022-08-28T12:32:15.159Z,18.15
2022-08-28T12:35:21.229Z,18.21
2022-08-28T12:38:24.460Z,18.22
2022-08-28T12:41:28.143Z,18.21
2022-08-28T12:44:34.425Z,18.30
2022-08-28T12:47:39.177Z,18.24
2022-08-28T12:50:42.833Z,18.35
2022-08-28T12:53:47.778Z,18.31
2022-08-28T12:56:51.248Z,18.36
2022-08-28T12:59:56.834Z,18.57
2022-08-28T13:03:01.379Z,18.82
2022-08-28T13:06:09.343Z,18.99
2022-08-28T13:09:16.826Z,18.86
2022-08-28T13:12:23.328Z,18.95
2022-08-28T13:15:48.523Z,19.04
2022-08-28T13:18:59.192Z,18.87
2022-08-28T13:22:04.037Z,18.88
2022-08-28T13:25:08.501Z,18.77
2022-08-28T13:28:17.708Z,18.92
2022-08-28T13:31:29.823Z,18.93
2022-08-28T13:34:35.068Z,19.05
2022-08-28T13:37:49.062Z,19.20
2022-08-28T13:40:58.428Z,19.21
2022-08-28T13:44:01.739Z,19.23
2022-08-28T13:47:07.693Z,19.29
2022-08-28T13:50:10.850Z,19.25
2022-08-28T13:53:13.959Z,19.27
2022-08-28T13:56:16.918Z,19.17
2022-08-28T13:59:19.929Z,19.15
2022-08-28T14:02:41.605Z,19.17
2022-08-28T14:05:44.677Z,19.15
2022-08-28T14:08:47.788Z,19.17
2022-08-28T14:11:51.309Z,19.13
2022-08-28T14:14:54.126Z,19.22
2022-08-28T14:17:58.310Z,19.31
2022-08-28T14:21:01.400Z,19.38
2022-08-28T14:24:05.644Z,19.39
2022-08-28T14:27:08.784Z,19.37
2022-08-28T14:30:12.284Z,19.36
2022-08-28T14:33:20.678Z,19.39
2022-08-28T14:36:26.202Z,19.31
2022-08-28T14:39:29.077Z,19.35
2022-08-28T14:42:31.908Z,19.42
2022-08-28T14:45:34.962Z,19.44
2022-08-28T14:48:39.392Z,19.43
2022-08-28T14:51:44.199Z,19.46
2022-08-28T14:54:46.999Z,19.46
2022-08-28T14:57:51.171Z,19.48
2022-08-28T15:00:54.238Z,19.41
2022-08-28T15:03:59.366Z,19.35
2022-08-28T15:07:06.417Z,19.38
2022-08-28T15:10:11.613Z,19.39
2022-08-28T15:13:15.300Z,19.36
2022-08-28T15:16:20.213Z,19.23
2022-08-28T15:19:31.026Z,19.33
2022-08-28T15:22:33.840Z,19.38
2022-08-28T15:25:36.771Z,19.42
2022-08-28T15:28:39.633Z,19.41
2022-08-28T15:31:45.511Z,19.52
2022-08-28T15:34:50.024Z,19.54
2022-08-28T15:37:53.577Z,19.56
2022-08-28T15:41:13.919Z,19.57
2022-08-28T15:44:17.103Z,19.58
2022-08-28T15:47:19.902Z,19.64
2022-08-28T15:50:24.194Z,19.59
2022-08-28T15:53:28.787Z,19.58
2022-08-28T15:56:31.679Z,19.63
2022-08-28T15:59:44.104Z,19.59
2022-08-28T16:02:52.281Z,19.65
2022-08-28T16:05:57.542Z,19.63
2022-08-28T16:09:00.392Z,19.64
2022-08-28T16:12:03.368Z,19.61
2022-08-28T16:15:07.119Z,19.52
2022-08-28T16:18:10.005Z,19.46
2022-08-28T16:21:14.541Z,19.46
2022-08-28T16:24:17.459Z,19.47
2022-08-28T16:27:20.628Z,19.45
2022-08-28T16:30:24.605Z,19.45
2022-08-28T16:33:28.052Z,19.36
2022-08-28T16:36:34.675Z,19.37
2022-08-28T16:39:37.601Z,19.32
2022-08-28T16:42:41.424Z,19.32
2022-08-28T16:45:46.632Z,19.33
2022-08-28T16:48:50.399Z,19.29
2022-08-28T16:51:54.535Z,19.29
2022-08-28T16:54:57.310Z,19.29
2022-08-28T16:58:00.173Z,19.31
2022-08-28T17:01:03.695Z,19.31
2022-08-28T17:04:08.824Z,19.32
2022-08-28T17:07:13.224Z,19.31
2022-08-28T17:10:23.046Z,19.32
2022-08-28T17:13:28.013Z,19.28
2022-08-28T17:16:32.237Z,19.14
2022-08-28T17:19:35.064Z,19.29
2022-08-28T17:22:41.415Z,19.24
2022-08-28T17:25:58.420Z,19.16
2022-08-28T17:29:02.566Z,19.21
2022-08-28T17:32:08.334Z,19.20
2022-08-28T17:35:15.278Z,19.13
2022-08-28T17:38:19.459Z,18.97
2022-08-28T17:41:22.264Z,18.87
2022-08-28T17:44:28.084Z,19.01
2022-08-28T17:47:31.835Z,19.00
2022-08-28T17:50:37.463Z,18.89
2022-08-28T17:53:49.457Z,18.82
2022-08-28T17:56:53.417Z,18.81
2022-08-28T17:59:56.239Z,18.66
2022-08-28T18:02:59.246Z,18.76
2022-08-28T18:06:05.459Z,18.53
2022-08-28T18:09:14.957Z,18.53
2022-08-28T18:12:17.874Z,18.44
2022-08-28T18:15:20.886Z,18.49
2022-08-28T18:18:32.319Z,18.43
2022-08-28T18:21:41.081Z,18.17
2022-08-28T18:24:45.222Z,18.05
2022-08-28T18:27:48.003Z,17.85
2022-08-28T18:30:52.895Z,17.96
2022-08-28T18:33:55.879Z,17.77
2022-08-28T18:36:58.818Z,17.85
2022-08-28T18:40:03.139Z,17.93
2022-08-28T18:43:08.323Z,17.93
2022-08-28T18:46:13.834Z,17.60
2022-08-28T18:49:19.234Z,17.79
2022-08-28T18:52:22.006Z,17.75
2022-08-28T18:55:33.801Z,17.63
2022-08-28T18:58:39.011Z,17.42
2022-08-28T19:01:45.630Z,17.36
2022-08-28T19:04:54.021Z,17.12
2022-08-28T19:07:56.920Z,17.20
2022-08-28T19:11:07.659Z,17.13
2022-08-28T19:14:13.319Z,16.91
2022-08-28T19:17:20.932Z,16.97
2022-08-28T19:20:26.533Z,16.81
2022-08-28T19:23:29.416Z,16.71
2022-08-28T19:26:34.250Z,16.67
2022-08-28T19:29:37.640Z,16.62
2022-08-28T19:32:49.777Z,16.50
2022-08-28T19:36:02.840Z,16.40
2022-08-28T19:39:06.219Z,16.33
2022-08-28T19:42:14.626Z,16.27
2022-08-28T19:45:25.763Z,16.25
2022-08-28T19:48:51.534Z,16.06
2022-08-28T19:52:03.139Z,16.11
2022-08-28T19:55:09.321Z,16.12
2022-08-28T19:58:13.692Z,16.27
2022-08-28T20:01:16.633Z,16.21
2022-08-28T20:04:23.545Z,16.23
2022-08-28T20:07:28.873Z,16.26
2022-08-28T20:10:35.894Z,16.13
2022-08-28T20:13:41.675Z,16.12
2022-08-28T20:16:48.405Z,16.04
2022-08-28T20:19:59.701Z,16.04
2022-08-28T20:23:08.612Z,15.97
2022-08-28T20:26:15.590Z,15.95
2022-08-28T20:29:20.442Z,16.10
2022-08-28T20:32:23.261Z,16.16
2022-08-28T20:35:27.564Z,16.18
2022-08-28T20:38:31.783Z,16.18
2022-08-28T20:41:35.489Z,16.19
2022-08-28T20:44:39.590Z,16.19
2022-08-28T20:47:42.427Z,15.99
2022-08-28T20:50:47.673Z,16.02
2022-08-28T20:53:53.715Z,15.68
2022-08-28T20:56:58.282Z,15.74
2022-08-28T21:00:05.666Z,15.61
2022-08-28T21:03:12.249Z,15.66
2022-08-28T21:06:15.000Z,15.63
2022-08-28T21:09:18.596Z,15.46
2022-08-28T21:12:21.459Z,15.54
2022-08-28T21:15:28.195Z,15.61
2022-08-28T21:18:30.938Z,15.54
2022-08-28T21:21:35.127Z,15.58
2022-08-28T21:24:37.920Z,15.38
2022-08-28T21:27:40.719Z,15.54
2022-08-28T21:30:44.895Z,15.60
2022-08-28T21:33:48.136Z,15.47
2022-08-28T21:36:51.887Z,15.45
2022-08-28T21:39:56.362Z,15.52
2022-08-28T21:42:59.714Z,15.50
2022-08-28T21:46:05.319Z,15.56
2022-08-28T21:49:08.071Z,15.54
2022-08-28T21:52:10.818Z,15.55
2022-08-28T21:55:15.973Z,15.46
2022-08-28T21:58:19.113Z,15.47
2022-08-28T22:01:25.919Z,15.32
2022-08-28T22:04:28.822Z,15.19
2022-08-28T22:07:31.764Z,15.16
2022-08-28T22:10:38.630Z,15.01
2022-08-28T22:13:43.464Z,14.98
2022-08-28T22:16:47.866Z,15.06
2022-08-28T22:19:51.236Z,15.06
2022-08-28T22:23:11.282Z,15.12
2022-08-28T22:26:16.212Z,14.93
2022-08-28T22:29:18.917Z,15.05
2022-08-28T22:32:25.582Z,14.93
2022-08-28T22:35:28.950Z,14.89
2022-08-28T22:38:31.926Z,14.73
2022-08-28T22:41:37.478Z,14.90
2022-08-28T22:44:40.283Z,15.01
2022-08-28T22:47:44.476Z,14.85
2022-08-28T22:50:48.405Z,14.75
2022-08-28T22:53:52.748Z,14.66
2022-08-28T22:56:55.468Z,14.65
2022-08-28T23:00:01.422Z,14.67
2022-08-28T23:03:05.871Z,14.63
2022-08-28T23:06:09.148Z,14.46
2022-08-28T23:09:12.022Z,14.32
2022-08-28T23:12:14.784Z,14.24
2022-08-28T23:15:20.570Z,14.13
2022-08-28T23:18:24.743Z,14.30
2022-08-28T23:21:28.433Z,14.28
2022-08-28T23:24:31.476Z,14.04
2022-08-28T23:27:36.712Z,13.97
2022-08-28T23:30:41.325Z,14.01
2022-08-28T23:33:52.617Z,13.83
2022-08-28T23:36:55.443Z,13.88
2022-08-28T23:40:01.458Z,13.69
2022-08-28T23:43:04.847Z,13.87
2022-08-28T23:46:07.615Z,13.67
2022-08-28T23:49:12.880Z,13.82
2022-08-28T23:52:15.723Z,13.54
2022-08-28T23:55:20.938Z,13.62
2022-08-28T23:58:23.739Z,13.25
